createdAt,value
2019-06-20T00:04:54.687Z,25.50
2019-06-20T00:09:58.276Z,25.50
2019-06-20T00:15:01.995Z,25.40
2019-06-20T00:20:07.070Z,25.30
2019-06-20T00:25:11.133Z,25.30
2019-06-20T00:30:15.138Z,25.30
2019-06-20T00:35:18.678Z,25.30
2019-06-20T00:40:22.403Z,25.10
2019-06-20T00:45:26.259Z,25.10
2019-06-20T00:50:29.832Z,25.10
2019-06-20T00:55:33.357Z,25.10
2019-06-20T01:00:36.866Z,25.00
2019-06-20T01:05:40.389Z,24.90
2019-06-20T01:10:43.973Z,24.90
2019-06-20T01:15:47.557Z,25.00
2019-06-20T01:20:51.060Z,25.00
2019-06-20T01:25:54.765Z,25.00
2019-06-20T01:30:58.347Z,24.90
2019-06-20T01:36:03.189Z,24.90
2019-06-20T01:41:07.915Z,24.80
2019-06-20T01:46:11.780Z,24.70
2019-06-20T01:51:15.359Z,24.60
2019-06-20T01:56:18.940Z,24.60
2019-06-20T02:01:22.460Z,24.60
2019-06-20T02:06:25.976Z,24.60
2019-06-20T02:11:29.565Z,24.60
2019-06-20T02:16:33.142Z,24.60
2019-06-20T02:21:36.896Z,24.60
2019-06-20T02:26:40.531Z,24.60
2019-06-20T02:31:44.103Z,24.70
2019-06-20T02:36:48.279Z,24.60
2019-06-20T02:41:51.878Z,24.60
2019-06-20T02:46:55.470Z,24.50
2019-06-20T02:51:59.551Z,24.50
2019-06-20T02:57:03.164Z,24.60
2019-06-20T03:02:06.688Z,24.60
2019-06-20T03:07:10.211Z,24.60
2019-06-20T03:12:13.801Z,24.60
2019-06-20T03:17:17.306Z,24.60
2019-06-20T03:22:20.852Z,24.60
2019-06-20T03:27:24.389Z,24.70
2019-06-20T03:32:27.995Z,24.70
2019-06-20T03:37:31.636Z,24.70
2019-06-20T03:42:35.229Z,24.70
2019-06-20T03:47:38.845Z,24.70
2019-06-20T03:52:42.399Z,24.80
2019-06-20T03:57:45.987Z,24.60
2019-06-20T04:02:49.499Z,24.60
2019-06-20T04:07:53.018Z,24.60
2019-06-20T04:12:56.545Z,24.70
2019-06-20T04:18:00.066Z,24.70
2019-06-20T04:23:03.678Z,24.70
2019-06-20T04:28:07.184Z,24.70
2019-06-20T04:33:10.726Z,24.70
2019-06-20T04:38:14.341Z,24.80
2019-06-20T04:43:17.879Z,24.80
2019-06-20T04:48:21.417Z,24.80
2019-06-20T04:53:25.033Z,24.80
2019-06-20T04:58:28.560Z,24.90
2019-06-20T05:03:32.087Z,24.90
2019-06-20T05:08:35.612Z,24.90
2019-06-20T05:13:39.190Z,24.90
2019-06-20T05:18:42.853Z,25.00
2019-06-20T05:23:46.367Z,25.10
2019-06-20T05:28:49.976Z,25.00
2019-06-20T05:33:53.491Z,25.10
2019-06-20T05:38:56.993Z,25.10
2019-06-20T05:44:00.515Z,25.10
2019-06-20T05:49:04.043Z,25.40
2019-06-20T05:54:07.706Z,25.50
2019-06-20T05:59:11.299Z,25.70
2019-06-20T06:04:14.945Z,25.70
2019-06-20T06:09:18.557Z,25.80
2019-06-20T06:14:22.062Z,26.00
2019-06-20T06:19:25.587Z,28.80
2019-06-20T06:24:29.705Z,31.30
2019-06-20T06:29:33.429Z,31.50
2019-06-20T06:34:36.952Z,30.70
2019-06-20T06:39:43.464Z,30.00
2019-06-20T06:44:45.752Z,29.70
2019-06-20T06:49:49.373Z,29.40
2019-06-20T06:54:52.903Z,29.30
2019-06-20T06:59:56.558Z,29.20
2019-06-20T07:05:00.168Z,29.10
2019-06-20T07:10:05.953Z,29.00
2019-06-20T07:15:10.087Z,29.10
2019-06-20T07:20:15.386Z,29.00
2019-06-20T07:25:20.646Z,29.10
2019-06-20T07:30:24.416Z,29.20
2019-06-20T07:35:28.065Z,29.30
2019-06-20T07:40:31.719Z,29.30
2019-06-20T07:45:35.573Z,29.20
2019-06-20T07:50:39.520Z,29.10
2019-06-20T07:55:43.375Z,29.10
2019-06-20T08:00:48.315Z,28.90
2019-06-20T08:05:52.914Z,28.70
2019-06-20T08:10:56.580Z,28.80
2019-06-20T08:16:03.498Z,28.80
2019-06-20T08:21:05.398Z,28.70
2019-06-20T08:26:09.079Z,28.70
2019-06-20T08:31:12.637Z,28.70
2019-06-20T08:36:16.291Z,28.60
2019-06-20T08:41:19.898Z,28.60
2019-06-20T08:46:23.440Z,28.50
2019-06-20T08:51:26.986Z,28.30
2019-06-20T08:56:30.581Z,28.30
2019-06-20T09:01:34.113Z,28.40
2019-06-20T09:06:37.757Z,28.40
2019-06-20T09:11:41.341Z,28.30
2019-06-20T09:16:44.898Z,28.30
2019-06-20T09:21:48.454Z,28.30
2019-06-20T09:26:52.859Z,28.40
2019-06-20T09:31:58.417Z,28.40
2019-06-20T09:40:45.476Z,28.50
2019-06-20T09:45:49.751Z,28.60
2019-06-20T09:50:54.634Z,28.70
2019-06-20T09:55:58.187Z,28.80
2019-06-20T10:01:01.832Z,28.80
2019-06-20T10:06:13.333Z,28.80
2019-06-20T10:11:10.754Z,28.80
2019-06-20T10:16:14.422Z,28.50
2019-06-20T10:21:17.959Z,28.60
2019-06-20T10:26:22.203Z,28.70
2019-06-20T10:31:25.923Z,28.80
2019-06-20T10:36:30.954Z,28.80
2019-06-20T10:41:34.561Z,28.80
2019-06-20T10:46:38.229Z,28.70
2019-06-20T10:51:44.216Z,28.80
2019-06-20T10:56:49.335Z,28.80
2019-06-20T11:01:53.069Z,28.90
2019-06-20T11:06:56.760Z,28.90
2019-06-20T11:12:00.284Z,29.00
2019-06-20T11:17:04.959Z,29.00
2019-06-20T11:28:03.037Z,29.10
2019-06-20T11:33:22.149Z,29.10
2019-06-20T11:38:25.827Z,29.00
2019-06-20T11:43:29.398Z,28.70
2019-06-20T11:48:35.176Z,28.70
2019-06-20T11:53:38.654Z,28.60
2019-06-20T11:58:44.827Z,28.50
2019-06-20T12:03:49.000Z,28.50
2019-06-20T12:08:52.667Z,28.50
2019-06-20T12:20:30.903Z,27.50
2019-06-20T12:25:34.587Z,27.50
2019-06-20T12:30:39.771Z,27.90
2019-06-20T12:35:44.474Z,28.00
2019-06-20T12:40:48.200Z,28.10
2019-06-20T12:45:51.874Z,28.20
2019-06-20T12:50:55.524Z,28.20
2019-06-20T12:55:59.196Z,28.30
2019-06-20T13:01:02.899Z,28.30
2019-06-20T13:06:06.744Z,28.30
2019-06-20T13:11:10.438Z,28.30
2019-06-20T13:16:14.043Z,28.30
2019-06-20T13:21:19.088Z,28.30
2019-06-20T13:26:22.792Z,28.30
2019-06-20T13:31:26.337Z,28.30
2019-06-20T13:36:30.130Z,28.30
2019-06-20T13:41:33.869Z,28.40
2019-06-20T13:46:37.792Z,28.40
2019-06-20T13:51:43.357Z,28.40
2019-06-20T13:56:47.542Z,28.50
2019-06-20T14:02:03.176Z,28.50
2019-06-20T14:06:57.779Z,28.60
2019-06-20T14:12:01.478Z,28.60
2019-06-20T14:17:05.013Z,28.70
2019-06-20T14:22:09.734Z,28.70
2019-06-20T14:27:14.702Z,28.80
2019-06-20T14:32:22.097Z,28.80
2019-06-20T14:37:23.740Z,28.90
2019-06-20T14:42:27.432Z,28.80
2019-06-20T14:47:30.980Z,28.90
2019-06-20T14:52:34.651Z,29.00
2019-06-20T14:57:38.384Z,29.00
2019-06-20T15:02:41.890Z,29.00
2019-06-20T15:07:47.216Z,29.00
2019-06-20T15:12:52.246Z,29.00
2019-06-20T15:17:58.115Z,29.00
2019-06-20T15:23:01.418Z,29.00
2019-06-20T15:28:05.205Z,29.00
2019-06-20T15:33:10.525Z,28.90
2019-06-20T15:38:14.135Z,29.00
2019-06-20T15:43:17.738Z,29.00
2019-06-20T15:48:21.281Z,29.00
2019-06-20T15:53:24.902Z,29.10
2019-06-20T15:58:28.636Z,29.00
2019-06-20T16:03:32.273Z,29.10
2019-06-20T16:08:35.786Z,29.10
2019-06-20T16:13:39.326Z,29.00
2019-06-20T16:18:42.848Z,29.10
2019-06-20T16:23:46.406Z,29.00
2019-06-20T16:28:49.962Z,29.00
2019-06-20T16:33:53.634Z,29.00
2019-06-20T16:38:58.814Z,28.90
2019-06-20T16:44:02.488Z,28.90
2019-06-20T16:49:06.164Z,28.90
2019-06-20T16:54:09.722Z,28.90
2019-06-20T16:59:14.324Z,28.80
2019-06-20T17:04:18.208Z,28.80
2019-06-20T17:09:21.834Z,28.70
2019-06-20T17:14:25.436Z,28.70
2019-06-20T17:19:29.131Z,28.60
2019-06-20T17:24:32.915Z,28.50
2019-06-20T17:35:43.035Z,26.40
2019-06-20T17:40:46.633Z,26.50
2019-06-20T17:45:50.363Z,26.80
2019-06-20T17:50:54.506Z,25.60
2019-06-20T17:55:58.223Z,24.80
2019-06-20T18:24:57.084Z,26.10
2019-06-20T18:30:01.103Z,27.30
2019-06-20T18:35:06.556Z,25.40
2019-06-20T18:40:11.524Z,23.20
2019-06-20T18:45:21.846Z,22.70
2019-06-20T18:50:26.006Z,24.10
2019-06-20T19:17:15.165Z,19.90
2019-06-20T19:22:19.220Z,19.10
2019-06-20T19:27:23.230Z,18.60
2019-06-20T19:32:27.229Z,18.20
2019-06-20T19:37:31.188Z,18.00
2019-06-20T19:42:35.000Z,17.80
2019-06-20T19:47:39.442Z,17.70
2019-06-20T19:52:46.168Z,17.60
2019-06-20T19:57:50.497Z,17.50
2019-06-20T20:02:54.834Z,17.30
2019-06-20T20:07:59.163Z,17.20
2019-06-20T20:13:03.259Z,17.20
2019-06-20T20:18:08.235Z,17.00
2019-06-20T20:23:13.809Z,16.90
2019-06-20T20:28:19.576Z,16.90
2019-06-20T20:33:23.696Z,16.90
2019-06-20T20:38:27.708Z,16.90
2019-06-20T20:43:32.968Z,17.00
2019-06-20T20:48:37.000Z,17.00
2019-06-20T20:53:40.824Z,17.10
2019-06-20T20:58:44.627Z,17.10
2019-06-20T21:03:48.274Z,17.10
2019-06-20T21:08:51.884Z,17.10
2019-06-20T21:13:55.495Z,17.10
2019-06-20T21:18:59.100Z,17.20
2019-06-20T21:24:02.868Z,17.20
2019-06-20T21:29:07.529Z,17.20
2019-06-20T21:34:11.152Z,17.20
2019-06-20T21:39:14.750Z,17.20
2019-06-20T21:44:18.361Z,17.20
2019-06-20T21:49:22.077Z,17.20
2019-06-20T21:54:25.671Z,17.20
2019-06-20T21:59:29.224Z,17.20
2019-06-20T22:04:32.741Z,17.20
2019-06-20T22:09:36.328Z,17.20
2019-06-20T22:14:39.954Z,17.20
2019-06-20T22:19:43.598Z,17.20
2019-06-20T22:24:47.111Z,17.20
2019-06-20T22:29:50.629Z,17.20
2019-06-20T22:34:54.171Z,17.20
2019-06-20T22:39:57.824Z,17.20
2019-06-20T22:45:01.408Z,17.10
2019-06-20T22:50:09.595Z,17.00
2019-06-20T22:55:13.426Z,16.80
2019-06-20T23:00:17.214Z,16.80
2019-06-20T23:05:21.010Z,16.70
2019-06-20T23:10:24.772Z,16.70
2019-06-20T23:15:28.474Z,16.60
2019-06-20T23:20:32.303Z,16.50
2019-06-20T23:25:35.980Z,16.40
2019-06-20T23:30:39.724Z,16.30
2019-06-20T23:35:43.319Z,16.30
2019-06-20T23:40:46.905Z,16.10
2019-06-20T23:45:50.488Z,16.10
2019-06-20T23:50:54.011Z,16.00
2019-06-20T23:55:57.625Z,15.90
